Terminal Aerodrome Forecast
Issued by NWS Lake Charles, LA

Home | Current Version | Previous Version | Text Only | Print | Product List | Glossary On
Versions: 1 2 3 4 5 6 7 8 9 10 11 12 13 14 15 16 17 18 19 20 21 22 23 24 25 26 27 28 29 30
000
FTUS44 KLCH 271136
TAFBPT
TAF
KBPT 271136Z 2712/2812 10006KT 5SM -TSRA OVC009CB
      TEMPO 2712/2714 33020G30KT 1/2SM +TSRA OVC006CB
     FM271500 10010G15KT P6SM -RA OVC080
     FM271700 10010KT P6SM OVC250=

USA.gov is the U.S. government's official web portal to all federal, state and local government web resources and services.